.
WxDataArchive / Data Records for 2007-09-08
2007-09-07 September 2007 2007-09-09

Data Records for Saturday, 08 September 2007

Time	Temp	Chill	HIndex	Humid	Dewpt	 Wind 	HiWind	WindDir	Rain 	Barom 
-----	----	-----	------	-----	-----	------	------	-------	-----	----- 
00:00	72.1	72.1	72.1	92	69.6	0	1	270	0.00	29.905 
00:05	72.0	72.0	72.0	92	69.5	0	0	---	0.00	29.907 
00:10	72.0	72.0	72.0	92	69.5	0	1	270	0.00	29.908 
00:15	71.8	71.8	71.8	93	69.7	0	1	270	0.00	29.910 
00:20	71.8	71.8	71.8	93	69.7	0	1	270	0.00	29.910 
00:25	71.8	71.8	71.8	93	69.7	0	0	---	0.00	29.908 
00:30	71.8	71.8	71.8	93	69.7	0	1	270	0.00	29.909 
00:35	71.8	71.8	71.8	93	69.7	0	0	---	0.00	29.914 
00:40	71.8	71.8	71.8	93	69.7	0	1	270	0.00	29.919 
00:45	71.8	71.8	71.8	94	70.0	0	1	270	0.00	29.921 
00:50	72.0	72.0	72.0	94	70.2	0	1	270	0.00	29.921 
00:55	72.0	72.0	72.0	94	70.2	0	1	270	0.00	29.921 
01:00	72.1	72.1	72.1	94	70.3	0	2	270	0.00	29.920 
01:05	72.1	72.1	72.1	94	70.3	0	2	270	0.00	29.918 
01:10	72.1	72.1	72.1	94	70.3	0	1	270	0.00	29.917 
01:15	72.0	72.0	72.0	94	70.2	0	0	---	0.00	29.913 
01:20	72.0	72.0	72.0	94	70.2	0	1	270	0.00	29.912 
01:25	72.0	72.0	72.0	94	70.2	0	1	270	0.00	29.915 
01:30	72.0	72.0	72.0	94	70.2	0	2	270	0.00	29.925 
01:35	71.8	71.8	71.8	94	70.0	1	2	248	0.06	29.932 
01:40	71.6	71.6	71.6	94	69.8	0	2	248	0.13	29.920 
01:45	71.6	71.6	71.6	95	70.1	0	1	248	0.06	29.921 
01:50	71.5	71.5	71.5	95	70.0	0	1	248	0.04	29.919 
01:55	71.3	71.3	71.3	95	69.8	0	1	248	0.01	29.921 
02:00	71.1	71.1	71.1	95	69.6	0	0	---	0.00	29.920 
02:05	70.9	70.9	70.9	95	69.4	0	0	---	0.00	29.917 
02:10	70.9	70.9	70.9	95	69.4	0	0	---	0.00	29.917 
02:15	70.8	70.8	70.8	96	69.6	0	0	---	0.00	29.916 
02:20	70.8	70.8	70.8	96	69.6	0	1	248	0.00	29.918 
02:25	70.6	70.6	70.6	96	69.4	0	0	---	0.00	29.916 
02:30	70.6	70.6	70.6	96	69.4	0	0	---	0.00	29.916 
02:35	70.4	70.4	70.4	96	69.2	0	0	---	0.00	29.915 
02:40	70.4	70.4	70.4	96	69.2	0	0	---	0.00	29.916 
02:45	70.3	70.3	70.3	96	69.1	0	0	---	0.00	29.917 
02:50	70.3	70.3	70.3	96	69.1	0	1	248	0.00	29.917 
02:55	70.3	70.3	70.3	96	69.1	0	0	---	0.00	29.917 
03:00	70.1	70.1	70.1	96	68.9	0	0	---	0.00	29.915 
03:05	69.9	69.9	69.9	96	68.7	0	0	---	0.00	29.914 
03:10	69.9	69.9	69.9	96	68.7	0	0	---	0.00	29.917 
03:15	69.9	69.9	69.9	96	68.7	0	0	---	0.00	29.918 
03:20	69.8	69.8	69.8	96	68.6	0	0	---	0.00	29.919 
03:25	69.8	69.8	69.8	96	68.6	0	0	---	0.00	29.919 
03:30	69.6	69.6	69.6	96	68.4	0	0	---	0.00	29.918 
03:35	69.6	69.6	69.6	96	68.4	0	1	248	0.00	29.918 
03:40	69.6	69.6	69.6	96	68.4	0	0	---	0.00	29.919 
03:45	69.8	69.8	69.8	96	68.6	0	0	---	0.00	29.918 
03:50	69.8	69.8	69.8	97	68.9	0	0	---	0.00	29.919 
03:55	69.8	69.8	69.8	97	68.9	0	0	---	0.00	29.922 
04:00	69.9	69.9	69.9	97	69.0	0	1	248	0.00	29.920 
04:05	69.9	69.9	69.9	97	69.0	0	0	---	0.00	29.919 
04:10	69.9	69.9	69.9	97	69.0	0	0	---	0.00	29.919 
04:15	69.8	69.8	69.8	97	68.9	0	0	---	0.00	29.919 
04:20	69.6	69.6	69.6	97	68.7	0	0	---	0.00	29.919 
04:25	69.6	69.6	69.6	97	68.7	0	0	---	0.00	29.919 
04:30	69.4	69.4	69.4	97	68.5	0	0	---	0.00	29.920 
04:35	69.4	69.4	69.4	97	68.5	0	0	---	0.00	29.920 
04:40	69.4	69.4	69.4	97	68.5	0	0	---	0.00	29.921 
04:45	69.3	69.3	69.3	97	68.4	0	0	---	0.00	29.921 
04:50	69.3	69.3	69.3	97	68.4	0	0	---	0.00	29.920 
04:55	69.1	69.1	69.1	97	68.2	0	0	---	0.00	29.920 
05:00	68.9	68.9	68.9	97	68.0	0	0	---	0.00	29.920 
05:05	68.9	68.9	68.9	97	68.0	0	0	---	0.00	29.920 
05:10	68.9	68.9	68.9	97	68.0	0	0	---	0.00	29.920 
05:15	68.8	68.8	68.8	97	67.9	0	0	---	0.00	29.921 
05:20	68.8	68.8	68.8	97	67.9	0	0	---	0.00	29.922 
05:25	68.6	68.6	68.6	97	67.7	0	0	---	0.00	29.924 
05:30	68.6	68.6	68.6	97	67.7	0	0	---	0.00	29.926 
05:35	68.6	68.6	68.6	97	67.7	0	0	---	0.00	29.928 
05:40	68.6	68.6	68.6	97	67.7	0	0	---	0.00	29.935 
05:45	68.6	68.6	68.6	97	67.7	0	0	---	0.00	29.936 
05:50	68.8	68.8	68.8	97	67.9	0	0	---	0.00	29.940 
05:55	68.8	68.8	68.8	97	67.9	0	0	---	0.00	29.939 
06:00	68.9	68.9	68.9	97	68.0	0	0	---	0.00	29.939 
06:05	68.9	68.9	68.9	97	68.0	0	0	---	0.00	29.944 
06:10	69.1	69.1	69.1	97	68.2	0	0	---	0.00	29.948 
06:15	69.1	69.1	69.1	97	68.2	0	0	---	0.00	29.951 
06:20	69.3	69.3	69.3	97	68.4	0	0	---	0.00	29.952 
06:25	69.3	69.3	69.3	97	68.4	0	0	---	0.00	29.952 
06:30	69.3	69.3	69.3	97	68.4	0	0	---	0.00	29.953 
06:35	69.4	69.4	69.4	97	68.5	0	0	---	0.00	29.954 
06:40	69.4	69.4	69.4	97	68.5	0	0	---	0.00	29.955 
06:45	69.6	69.6	69.6	97	68.7	0	0	---	0.00	29.957 
06:50	69.8	69.8	69.8	97	68.9	0	0	---	0.00	29.960 
06:55	69.8	69.8	69.8	97	68.9	0	0	---	0.00	29.961 
07:00	69.9	69.9	69.9	97	69.0	0	0	---	0.00	29.964 
07:05	69.9	69.9	69.9	97	69.0	0	0	---	0.00	29.966 
07:10	70.1	70.1	70.1	97	69.2	0	0	---	0.00	29.968 
07:15	70.1	70.1	70.1	97	69.2	0	0	---	0.00	29.969 
07:20	70.1	70.1	70.1	97	69.2	0	0	---	0.00	29.969 
07:25	70.1	70.1	70.1	97	69.2	0	0	---	0.00	29.969 
07:30	70.1	70.1	70.1	97	69.2	0	0	---	0.00	29.968 
07:35	70.1	70.1	70.1	97	69.2	0	0	---	0.00	29.968 
07:40	70.1	70.1	70.1	97	69.2	0	1	248	0.00	29.966 
07:45	70.1	70.1	70.1	97	69.2	0	0	---	0.00	29.967 
07:50	70.1	70.1	70.1	97	69.2	0	1	248	0.00	29.967 
07:55	70.1	70.1	70.1	97	69.2	0	2	248	0.00	29.966 
08:00	69.9	69.9	69.9	97	69.0	0	3	135	0.00	29.967 
08:05	69.8	69.8	69.8	97	68.9	0	1	135	0.00	29.968 
08:10	69.8	69.8	69.8	97	68.9	0	2	112	0.00	29.969 
08:15	69.6	69.6	69.6	97	68.7	0	2	112	0.00	29.969 
08:20	69.4	69.4	69.4	97	68.5	0	2	90	0.00	29.969 
08:25	69.3	69.3	69.3	97	68.4	0	2	90	0.00	29.967 
08:30	68.9	68.9	68.9	97	68.0	1	3	112	0.00	29.968 
08:35	68.3	68.3	68.3	97	67.4	2	6	112	0.00	29.971 
08:40	67.8	67.8	67.8	97	66.9	2	7	90	0.00	29.973 
08:45	67.6	67.6	67.6	96	66.4	2	5	90	0.00	29.974 
08:50	67.3	67.3	67.3	96	66.1	3	7	112	0.00	29.974 
08:55	67.3	67.3	67.3	95	65.8	1	5	112	0.00	29.974 
09:00	67.4	67.4	67.4	95	65.9	1	3	112	0.00	29.976 
09:05	67.6	67.6	67.6	95	66.1	1	4	135	0.00	29.978 
09:10	67.6	67.6	67.6	93	65.5	1	5	90	0.00	29.977 
09:15	68.3	68.3	68.3	93	66.2	1	4	90	0.00	29.975 
09:20	68.4	68.4	68.4	92	66.0	1	5	135	0.00	29.975 
09:25	68.6	68.6	68.6	90	65.5	2	4	90	0.00	29.976 
09:30	68.9	68.9	68.9	90	65.8	0	3	90	0.00	29.976 
09:35	69.1	69.1	69.1	89	65.7	0	2	90	0.00	29.979 
09:40	69.3	69.3	69.3	88	65.6	1	3	90	0.00	29.982 
09:45	69.3	69.3	69.3	88	65.6	1	4	112	0.00	29.980 
09:50	69.4	69.4	69.4	87	65.4	1	4	112	0.00	29.982 
09:55	69.4	69.4	69.4	86	65.0	2	5	112	0.00	29.984 
10:00	69.4	69.4	69.4	86	65.0	1	3	112	0.00	29.986 
10:05	69.6	69.6	69.6	87	65.6	1	3	112	0.00	29.989 
10:10	69.8	69.8	69.8	87	65.7	2	5	112	0.00	29.989 
10:15	70.1	70.1	70.1	86	65.7	1	4	112	0.00	29.989 
10:20	70.3	70.3	70.3	85	65.6	1	6	112	0.00	29.989 
10:25	70.4	70.4	70.4	86	66.0	2	5	112	0.00	29.988 
10:30	70.6	70.6	70.6	87	66.5	2	5	90	0.00	29.986 
10:35	70.8	70.8	70.8	87	66.7	2	6	112	0.00	29.986 
10:40	70.9	70.9	70.9	86	66.5	2	4	112	0.00	29.987 
10:45	70.9	70.9	70.9	86	66.5	2	5	90	0.00	29.987 
10:50	71.1	71.1	71.1	87	67.0	1	4	68	0.00	29.987 
10:55	71.3	71.3	71.3	87	67.2	2	3	90	0.00	29.986 
11:00	71.3	71.3	71.3	87	67.2	1	3	112	0.00	29.985 
11:05	71.6	71.6	71.6	87	67.5	2	4	112	0.00	29.985 
11:10	72.3	72.3	72.3	85	67.5	1	3	112	0.00	29.988 
11:15	72.5	72.5	72.5	84	67.4	2	6	112	0.00	29.985 
11:20	72.7	72.7	72.7	84	67.6	2	5	90	0.00	29.985 
11:25	72.7	72.7	72.7	85	67.9	2	5	112	0.00	29.980 
11:30	73.5	73.5	73.5	86	69.0	2	4	90	0.00	29.977 
11:35	73.9	73.9	73.9	83	68.4	2	5	90	0.00	29.977 
11:40	74.2	74.2	74.2	83	68.7	1	5	90	0.00	29.981 
11:45	74.6	74.6	74.6	83	69.1	2	4	90	0.00	29.975 
11:50	74.7	74.7	74.7	82	68.8	1	3	90	0.00	29.974 
11:55	75.1	75.1	75.5	82	69.2	2	4	90	0.00	29.976 
12:00	74.9	74.9	74.9	83	69.4	2	6	112	0.00	29.973 
12:05	74.9	74.9	74.9	83	69.4	2	4	90	0.00	29.973 
12:10	74.6	74.6	74.6	83	69.1	3	5	90	0.00	29.972 
12:15	74.7	74.7	74.7	83	69.2	1	4	112	0.00	29.971 
12:20	74.7	74.7	74.7	83	69.2	2	4	90	0.00	29.970 
12:25	74.7	74.7	74.7	83	69.2	2	4	68	0.00	29.970 
12:30	74.7	74.7	74.7	83	69.2	2	4	112	0.00	29.969 
12:35	74.9	74.9	74.9	83	69.4	1	4	112	0.00	29.967 
12:40	75.1	75.1	75.5	82	69.2	2	5	90	0.00	29.965 
12:45	75.4	75.4	75.8	83	69.9	2	4	112	0.00	29.963 
12:50	75.6	75.6	76.2	82	69.7	1	3	112	0.00	29.960 
12:55	75.8	75.8	76.6	81	69.5	1	2	112	0.00	29.958 
13:00	75.6	75.6	76.3	81	69.3	2	4	68	0.00	29.956 
13:05	75.6	75.6	76.2	82	69.7	1	4	112	0.00	29.956 
13:10	75.6	75.6	76.3	81	69.3	2	5	112	0.00	29.955 
13:15	75.8	75.8	76.4	83	70.3	1	3	90	0.00	29.955 
13:20	76.0	76.0	76.9	81	69.7	1	5	90	0.00	29.955 
13:25	76.1	76.1	77.1	81	69.8	2	5	90	0.00	29.955 
13:30	76.5	76.5	77.7	81	70.2	2	4	90	0.00	29.952 
13:35	76.8	76.8	78.2	81	70.5	1	5	112	0.00	29.951 
13:40	77.2	77.2	78.9	80	70.5	1	4	112	0.00	29.952 
13:45	77.4	77.4	79.3	78	70.0	2	5	90	0.00	29.949 
13:50	77.6	77.6	79.6	77	69.8	3	6	90	0.00	29.944 
13:55	77.6	77.6	79.6	78	70.2	3	5	90	0.00	29.940 
14:00	77.6	77.6	79.6	79	70.6	1	4	90	0.00	29.938 
14:05	77.7	77.7	79.7	78	70.3	2	5	90	0.00	29.936 
14:10	77.9	77.9	80.1	77	70.1	2	5	90	0.00	29.935 
14:15	77.9	77.9	80.1	78	70.5	2	5	90	0.00	29.934 
14:20	78.1	78.1	80.4	78	70.7	1	3	90	0.00	29.934 
14:25	78.1	78.1	80.4	77	70.3	1	4	112	0.00	29.937 
14:30	77.9	77.9	80.1	78	70.5	1	4	112	0.00	29.938 
14:35	77.9	77.9	80.1	77	70.1	2	3	112	0.00	29.938 
14:40	77.7	77.7	79.7	77	69.9	2	4	112	0.00	29.937 
14:45	77.4	77.4	79.3	78	70.0	1	4	90	0.00	29.934 
14:50	77.4	77.4	79.3	78	70.0	0	2	90	0.00	29.928 
14:55	77.6	77.6	79.6	80	70.9	0	2	90	0.00	29.922 
15:00	77.7	77.7	79.7	78	70.3	0	3	90	0.00	29.924 
15:05	77.7	77.7	79.7	78	70.3	0	2	90	0.00	29.925 
15:10	77.7	77.7	79.8	81	71.4	0	1	90	0.00	29.923 
15:15	77.9	77.9	80.1	80	71.2	0	1	90	0.00	29.924 
15:20	77.7	77.7	79.8	79	70.7	1	3	90	0.00	29.923 
15:25	77.6	77.6	79.6	79	70.6	1	2	90	0.00	29.922 
15:30	77.4	77.4	79.2	80	70.7	1	3	90	0.00	29.921 
15:35	77.2	77.2	78.9	80	70.5	1	4	90	0.00	29.922 
15:40	77.2	77.2	78.9	81	70.9	0	1	90	0.00	29.924 
15:45	77.2	77.2	78.9	81	70.9	0	1	90	0.00	29.923 
15:50	77.0	77.0	78.5	81	70.7	0	1	90	0.00	29.922 
15:55	77.0	77.0	78.5	81	70.7	0	1	90	0.00	29.921 
16:00	77.0	77.0	78.5	82	71.1	0	1	90	0.00	29.922 
16:05	76.8	76.8	78.2	81	70.5	0	1	90	0.00	29.921 
16:10	76.8	76.8	78.2	81	70.5	0	1	90	0.00	29.918 
16:15	76.8	76.8	78.2	81	70.5	0	1	90	0.00	29.920 
16:20	76.8	76.8	78.2	82	70.9	0	1	90	0.00	29.922 
16:25	76.7	76.7	77.9	83	71.1	0	0	---	0.01	29.921 
16:30	76.5	76.5	77.5	84	71.3	0	0	---	0.00	29.917 
16:35	76.1	76.1	76.7	85	71.2	0	0	---	0.00	29.912 
16:40	75.8	75.8	76.1	86	71.3	0	0	---	0.01	29.913 
16:45	75.6	75.6	75.6	87	71.4	0	0	---	0.02	29.915 
16:50	75.4	75.4	75.1	88	71.6	0	0	---	0.01	29.918 
16:55	75.4	75.4	74.8	90	72.3	0	0	---	0.02	29.921 
17:00	75.1	75.1	74.1	91	72.3	0	0	---	0.02	29.921 
17:05	74.9	74.9	74.9	91	72.1	0	0	---	0.02	29.916 
17:10	74.7	74.7	74.7	92	72.2	0	1	90	0.01	29.908 
17:15	74.6	74.6	74.6	92	72.1	1	2	90	0.02	29.907 
17:20	73.7	73.7	73.7	91	70.9	2	5	90	0.00	29.907 
17:25	72.8	72.8	72.8	91	70.0	2	4	90	0.01	29.906 
17:30	72.3	72.3	72.3	92	69.8	1	3	90	0.00	29.905 
17:35	72.1	72.1	72.1	92	69.6	1	2	90	0.00	29.901 
17:40	71.8	71.8	71.8	93	69.7	0	3	90	0.00	29.902 
17:45	71.6	71.6	71.6	93	69.5	1	3	90	0.00	29.899 
17:50	71.5	71.5	71.5	93	69.4	0	2	90	0.00	29.906 
17:55	71.6	71.6	71.6	94	69.8	0	1	90	0.00	29.911 
18:00	71.5	71.5	71.5	94	69.7	0	2	90	0.00	29.912 
18:05	71.5	71.5	71.5	94	69.7	0	0	---	0.00	29.912 
18:10	71.5	71.5	71.5	94	69.7	0	0	---	0.00	29.917 
18:15	71.5	71.5	71.5	94	69.7	0	0	---	0.00	29.918 
18:20	71.5	71.5	71.5	94	69.7	0	0	---	0.00	29.920 
18:25	71.5	71.5	71.5	95	70.0	0	0	---	0.00	29.921 
18:30	71.5	71.5	71.5	95	70.0	0	0	---	0.00	29.919 
18:35	71.5	71.5	71.5	95	70.0	0	1	90	0.00	29.921 
18:40	71.5	71.5	71.5	95	70.0	0	1	90	0.00	29.921 
18:45	71.5	71.5	71.5	95	70.0	0	1	90	0.00	29.922 
18:50	71.5	71.5	71.5	95	70.0	0	1	90	0.00	29.924 
18:55	71.5	71.5	71.5	96	70.3	1	2	90	0.00	29.925 
19:00	71.5	71.5	71.5	96	70.3	0	2	90	0.00	29.927 
19:05	71.5	71.5	71.5	96	70.3	0	1	90	0.00	29.927 
19:10	71.5	71.5	71.5	96	70.3	0	1	90	0.00	29.926 
19:15	71.6	71.6	71.6	96	70.4	0	1	90	0.00	29.926 
19:20	71.8	71.8	71.8	96	70.6	0	2	90	0.00	29.927 
19:25	71.8	71.8	71.8	96	70.6	0	1	90	0.00	29.928 
19:30	72.0	72.0	72.0	96	70.8	1	3	90	0.00	29.927 
19:35	72.0	72.0	72.0	96	70.8	1	3	90	0.00	29.927 
19:40	72.1	72.1	72.1	96	70.9	1	2	90	0.00	29.928 
19:45	72.1	72.1	72.1	96	70.9	1	3	112	0.00	29.928 
19:50	72.1	72.1	72.1	96	70.9	1	2	112	0.00	29.927 
19:55	72.1	72.1	72.1	96	70.9	0	1	112	0.00	29.926 
20:00	72.1	72.1	72.1	96	70.9	1	3	112	0.00	29.924 
20:05	72.1	72.1	72.1	96	70.9	0	1	112	0.00	29.929 
20:10	72.1	72.1	72.1	96	70.9	0	3	112	0.00	29.929 
20:15	72.1	72.1	72.1	96	70.9	0	2	112	0.00	29.928 
20:20	72.0	72.0	72.0	96	70.8	0	3	90	0.00	29.924 
20:25	72.0	72.0	72.0	96	70.8	0	1	90	0.01	29.925 
20:30	72.0	72.0	72.0	96	70.8	0	2	90	0.00	29.925 
20:35	72.0	72.0	72.0	96	70.8	0	1	90	0.00	29.925 
20:40	72.0	72.0	72.0	96	70.8	0	1	90	0.00	29.925 
20:45	72.0	72.0	72.0	97	71.1	0	1	90	0.00	29.927 
20:50	72.0	72.0	72.0	97	71.1	0	1	90	0.00	29.927 
20:55	72.0	72.0	72.0	97	71.1	0	0	---	0.00	29.929 
21:00	72.0	72.0	72.0	97	71.1	0	1	90	0.00	29.929 
21:05	72.0	72.0	72.0	97	71.1	0	0	---	0.01	29.928 
21:10	71.8	71.8	71.8	97	70.9	0	0	---	0.00	29.929 
21:15	71.8	71.8	71.8	97	70.9	0	0	---	0.00	29.930 
21:20	71.8	71.8	71.8	97	70.9	0	0	---	0.00	29.931 
21:25	71.8	71.8	71.8	97	70.9	0	1	90	0.00	29.931 
21:30	71.8	71.8	71.8	97	70.9	0	1	90	0.01	29.929 
21:35	71.6	71.6	71.6	97	70.7	0	1	90	0.00	29.930 
21:40	71.6	71.6	71.6	97	70.7	0	0	---	0.00	29.928 
21:45	71.5	71.5	71.5	97	70.6	0	0	---	0.00	29.928 
21:50	71.5	71.5	71.5	97	70.6	0	1	90	0.01	29.928 
21:55	71.3	71.3	71.3	97	70.4	0	1	90	0.00	29.928 
22:00	71.3	71.3	71.3	97	70.4	0	1	90	0.01	29.927 
22:05	71.3	71.3	71.3	97	70.4	0	0	---	0.00	29.926 
22:10	71.3	71.3	71.3	97	70.4	0	0	---	0.01	29.925 
22:15	71.3	71.3	71.3	97	70.4	0	1	90	0.00	29.924 
22:20	71.1	71.1	71.1	97	70.2	0	1	90	0.01	29.923 
22:25	71.1	71.1	71.1	97	70.2	0	1	90	0.00	29.922 
22:30	71.1	71.1	71.1	97	70.2	0	1	90	0.01	29.918 
22:35	71.1	71.1	71.1	97	70.2	0	1	90	0.00	29.915 
22:40	71.1	71.1	71.1	97	70.2	0	1	90	0.01	29.914 
22:45	71.1	71.1	71.1	97	70.2	0	1	90	0.00	29.912 
22:50	71.1	71.1	71.1	97	70.2	0	1	90	0.00	29.911 
22:55	71.1	71.1	71.1	97	70.2	0	2	90	0.00	29.910 
23:00	70.9	70.9	70.9	97	70.0	1	2	90	0.01	29.907 
23:05	70.9	70.9	70.9	97	70.0	0	1	90	0.00	29.903 
23:10	70.9	70.9	70.9	97	70.0	0	1	90	0.00	29.900 
23:15	70.9	70.9	70.9	97	70.0	0	2	90	0.00	29.899 
23:20	70.8	70.8	70.8	97	69.9	0	2	90	0.01	29.900 
23:25	70.8	70.8	70.8	97	69.9	0	1	90	0.00	29.898 
23:30	70.8	70.8	70.8	97	69.9	0	2	112	0.00	29.898 
23:35	70.6	70.6	70.6	97	69.7	0	1	112	0.01	29.901 
23:40	70.6	70.6	70.6	97	69.7	0	0	---	0.00	29.903 
23:45	70.6	70.6	70.6	97	69.7	0	0	---	0.00	29.906 
23:50	70.6	70.6	70.6	97	69.7	0	0	---	0.00	29.906 
23:55	70.6	70.6	70.6	97	69.7	0	1	112	0.00	29.905 

CoCoRaHS
IN-AL-39
A2 Web Hosting
Creative Commons License
GoDaddy
Look for:

loaded 2017-12-10 21:16:23 • last modified 2010-11-18 10:43:29
Privacy PolicyDisclaimer
• wx.awcolley.com is powered by PmWiki v.2002016 •
• all content (unless otherwise noted) © 2017 A W Colley